sensor_id;sensor_type;location;lat;lon;timestamp;pressure;altitude;pressure_sealevel;temperature;humidity
13080;BME280;6606;49.154;9.280;2023-04-01T00:02:07;98220.56;;;10.96;100.00
13080;BME280;6606;49.154;9.280;2023-04-01T00:04:49;98231.91;;;10.74;100.00
13080;BME280;6606;49.154;9.280;2023-04-01T00:07:31;98222.03;;;10.76;100.00
13080;BME280;6606;49.154;9.280;2023-04-01T00:10:13;98226.09;;;10.69;100.00
13080;BME280;6606;49.154;9.280;2023-04-01T00:12:55;98216.97;;;10.73;100.00
13080;BME280;6606;49.154;9.280;2023-04-01T00:15:39;98217.94;;;10.72;100.00
13080;BME280;6606;49.154;9.280;2023-04-01T00:18:21;98220.94;;;10.67;100.00
13080;BME280;6606;49.154;9.280;2023-04-01T00:21:03;98213.16;;;10.77;100.00
13080;BME280;6606;49.154;9.280;2023-04-01T00:23:45;98211.13;;;10.56;100.00
13080;BME280;6606;49.154;9.280;2023-04-01T00:26:26;98211.41;;;10.65;100.00
13080;BME280;6606;49.154;9.280;2023-04-01T00:29:08;98214.78;;;10.67;100.00
13080;BME280;6606;49.154;9.280;2023-04-01T00:31:51;98226.09;;;10.69;100.00
13080;BME280;6606;49.154;9.280;2023-04-01T00:34:33;98221.72;;;10.56;100.00
13080;BME280;6606;49.154;9.280;2023-04-01T00:37:15;98220.47;;;10.73;100.00
13080;BME280;6606;49.154;9.280;2023-04-01T00:39:57;98222.50;;;10.70;100.00
13080;BME280;6606;49.154;9.280;2023-04-01T00:42:38;98226.50;;;10.75;100.00
13080;BME280;6606;49.154;9.280;2023-04-01T00:45:28;98236.03;;;10.78;100.00
13080;BME280;6606;49.154;9.280;2023-04-01T00:48:15;98233.47;;;10.76;100.00
13080;BME280;6606;49.154;9.280;2023-04-01T00:51:01;98228.09;;;10.78;100.00
13080;BME280;6606;49.154;9.280;2023-04-01T00:53:46;98232.03;;;10.72;100.00
13080;BME280;6606;49.154;9.280;2023-04-01T00:56:32;98225.91;;;10.72;100.00
13080;BME280;6606;49.154;9.280;2023-04-01T00:59:22;98215.31;;;10.72;100.00
13080;BME280;6606;49.154;9.280;2023-04-01T01:02:07;98219.59;;;10.62;100.00
13080;BME280;6606;49.154;9.280;2023-04-01T01:04:51;98214.56;;;10.70;100.00
13080;BME280;6606;49.154;9.280;2023-04-01T01:07:38;98214.00;;;10.77;100.00
13080;BME280;6606;49.154;9.280;2023-04-01T01:10:26;98226.84;;;10.71;100.00
13080;BME280;6606;49.154;9.280;2023-04-01T01:13:17;98220.00;;;10.55;100.00
13080;BME280;6606;49.154;9.280;2023-04-01T01:16:05;98217.03;;;10.60;100.00
13080;BME280;6606;49.154;9.280;2023-04-01T01:18:50;98213.59;;;10.71;100.00
13080;BME280;6606;49.154;9.280;2023-04-01T01:25:04;98212.00;;;10.68;100.00
13080;BME280;6606;49.154;9.280;2023-04-01T01:27:57;98217.94;;;10.72;100.00
13080;BME280;6606;49.154;9.280;2023-04-01T01:30:47;98228.94;;;10.54;100.00
13080;BME280;6606;49.154;9.280;2023-04-01T01:33:46;98228.03;;;10.67;100.00
13080;BME280;6606;49.154;9.280;2023-04-01T01:36:33;98202.25;;;10.69;100.00
13080;BME280;6606;49.154;9.280;2023-04-01T01:39:18;98205.13;;;10.66;100.00
13080;BME280;6606;49.154;9.280;2023-04-01T01:42:04;98219.22;;;10.66;100.00
13080;BME280;6606;49.154;9.280;2023-04-01T01:44:49;98210.00;;;10.72;100.00
13080;BME280;6606;49.154;9.280;2023-04-01T01:47:33;98205.88;;;10.68;100.00
13080;BME280;6606;49.154;9.280;2023-04-01T01:50:17;98200.06;;;10.63;100.00
13080;BME280;6606;49.154;9.280;2023-04-01T01:53:06;98203.47;;;10.65;100.00
13080;BME280;6606;49.154;9.280;2023-04-01T01:55:48;98194.53;;;10.66;100.00
13080;BME280;6606;49.154;9.280;2023-04-01T01:58:32;98197.47;;;10.74;100.00
13080;BME280;6606;49.154;9.280;2023-04-01T02:01:24;98196.16;;;10.79;100.00
13080;BME280;6606;49.154;9.280;2023-04-01T02:04:11;98197.97;;;10.79;100.00
13080;BME280;6606;49.154;9.280;2023-04-01T02:06:59;98208.06;;;10.74;100.00
13080;BME280;6606;49.154;9.280;2023-04-01T02:09:44;98208.81;;;10.87;100.00
13080;BME280;6606;49.154;9.280;2023-04-01T02:12:26;98192.31;;;10.84;100.00
13080;BME280;6606;49.154;9.280;2023-04-01T02:15:12;98206.91;;;10.89;100.00
13080;BME280;6606;49.154;9.280;2023-04-01T02:17:55;98202.31;;;10.80;100.00
13080;BME280;6606;49.154;9.280;2023-04-01T02:20:38;98204.19;;;10.67;100.00
13080;BME280;6606;49.154;9.280;2023-04-01T02:23:22;98183.66;;;10.57;100.00
13080;BME280;6606;49.154;9.280;2023-04-01T02:26:06;98200.19;;;10.61;100.00
13080;BME280;6606;49.154;9.280;2023-04-01T02:28:50;98200.75;;;10.53;100.00
13080;BME280;6606;49.154;9.280;2023-04-01T02:31:34;98204.69;;;10.72;100.00
13080;BME280;6606;49.154;9.280;2023-04-01T02:34:15;98196.94;;;10.69;100.00
13080;BME280;6606;49.154;9.280;2023-04-01T02:36:57;98192.97;;;10.63;100.00
13080;BME280;6606;49.154;9.280;2023-04-01T02:39:39;98201.41;;;10.68;100.00
13080;BME280;6606;49.154;9.280;2023-04-01T02:42:24;98196.44;;;10.64;100.00
13080;BME280;6606;49.154;9.280;2023-04-01T02:45:07;98194.53;;;10.66;100.00
13080;BME280;6606;49.154;9.280;2023-04-01T02:47:49;98195.19;;;10.69;100.00
13080;BME280;6606;49.154;9.280;2023-04-01T02:50:30;98199.28;;;10.73;100.00
13080;BME280;6606;49.154;9.280;2023-04-01T02:53:12;98204.69;;;10.72;100.00
13080;BME280;6606;49.154;9.280;2023-04-01T02:55:54;98190.66;;;10.83;100.00
13080;BME280;6606;49.154;9.280;2023-04-01T02:58:38;98213.34;;;10.74;100.00
13080;BME280;6606;49.154;9.280;2023-04-01T03:01:20;98194.88;;;10.85;100.00
13080;BME280;6606;49.154;9.280;2023-04-01T03:04:02;98181.81;;;10.82;100.00
13080;BME280;6606;49.154;9.280;2023-04-01T03:06:44;98186.25;;;10.70;100.00
13080;BME280;6606;49.154;9.280;2023-04-01T03:09:25;98190.06;;;10.66;100.00
13080;BME280;6606;49.154;9.280;2023-04-01T03:12:09;98197.47;;;10.74;100.00
13080;BME280;6606;49.154;9.280;2023-04-01T03:15:02;98202.94;;;10.60;100.00
13080;BME280;6606;49.154;9.280;2023-04-01T03:17:44;98208.03;;;10.63;100.00
13080;BME280;6606;49.154;9.280;2023-04-01T03:20:27;98205.59;;;10.60;100.00
13080;BME280;6606;49.154;9.280;2023-04-01T03:23:09;98207.78;;;10.66;100.00
13080;BME280;6606;49.154;9.280;2023-04-01T03:25:51;98204.88;;;10.57;100.00
13080;BME280;6606;49.154;9.280;2023-04-01T03:28:32;98213.28;;;10.51;100.00
13080;BME280;6606;49.154;9.280;2023-04-01T03:31:16;98214.38;;;10.60;100.00
13080;BME280;6606;49.154;9.280;2023-04-01T03:34:04;98217.50;;;10.54;100.00
13080;BME280;6606;49.154;9.280;2023-04-01T03:36:45;98216.66;;;10.53;100.00
13080;BME280;6606;49.154;9.280;2023-04-01T03:39:27;98211.41;;;10.65;100.00
13080;BME280;6606;49.154;9.280;2023-04-01T03:42:09;98197.41;;;10.63;100.00
13080;BME280;6606;49.154;9.280;2023-04-01T03:44:51;98216.94;;;10.62;100.00
13080;BME280;6606;49.154;9.280;2023-04-01T03:47:34;98213.13;;;10.53;100.00
13080;BME280;6606;49.154;9.280;2023-04-01T03:50:16;98223.41;;;10.57;100.00
13080;BME280;6606;49.154;9.280;2023-04-01T03:52:58;98231.25;;;10.59;100.00
13080;BME280;6606;49.154;9.280;2023-04-01T03:55:39;98227.03;;;10.56;100.00
13080;BME280;6606;49.154;9.280;2023-04-01T03:58:21;98219.69;;;10.60;100.00
13080;BME280;6606;49.154;9.280;2023-04-01T04:01:13;98218.50;;;10.64;100.00
13080;BME280;6606;49.154;9.280;2023-04-01T04:03:57;98211.50;;;10.63;100.00
13080;BME280;6606;49.154;9.280;2023-04-01T04:06:39;98204.13;;;10.55;100.00
13080;BME280;6606;49.154;9.280;2023-04-01T04:09:21;98208.47;;;10.56;100.00
13080;BME280;6606;49.154;9.280;2023-04-01T04:12:04;98197.66;;;10.60;100.00
13080;BME280;6606;49.154;9.280;2023-04-01T04:14:46;98209.41;;;10.55;100.00
13080;BME280;6606;49.154;9.280;2023-04-01T04:17:28;98207.38;;;10.48;100.00
13080;BME280;6606;49.154;9.280;2023-04-01T04:20:11;98207.28;;;10.61;100.00
13080;BME280;6606;49.154;9.280;2023-04-01T04:22:53;98208.03;;;10.63;100.00
13080;BME280;6606;49.154;9.280;2023-04-01T04:25:34;98209.94;;;10.61;100.00
13080;BME280;6606;49.154;9.280;2023-04-01T04:28:16;98209.81;;;10.62;100.00
13080;BME280;6606;49.154;9.280;2023-04-01T04:30:58;98205.00;;;10.56;100.00
13080;BME280;6606;49.154;9.280;2023-04-01T04:33:40;98191.63;;;10.57;100.00
13080;BME280;6606;49.154;9.280;2023-04-01T04:36:23;98202.94;;;10.60;100.00
13080;BME280;6606;49.154;9.280;2023-04-01T04:39:06;98210.56;;;10.64;100.00
13080;BME280;6606;49.154;9.280;2023-04-01T04:41:51;98198.16;;;10.65;100.00
13080;BME280;6606;49.154;9.280;2023-04-01T04:44:34;98198.25;;;10.63;100.00
13080;BME280;6606;49.154;9.280;2023-04-01T04:47:16;98202.44;;;10.54;100.00
13080;BME280;6606;49.154;9.280;2023-04-01T04:49:58;98192.47;;;10.58;100.00
13080;BME280;6606;49.154;9.280;2023-04-01T04:52:41;98193.09;;;10.62;100.00
13080;BME280;6606;49.154;9.280;2023-04-01T04:55:23;98194.53;;;10.66;100.00
13080;BME280;6606;49.154;9.280;2023-04-01T04:58:23;98193.88;;;10.75;100.00
13080;BME280;6606;49.154;9.280;2023-04-01T05:01:08;98188.88;;;10.59;100.00
13080;BME280;6606;49.154;9.280;2023-04-01T05:03:51;98189.94;;;10.56;100.00
13080;BME280;6606;49.154;9.280;2023-04-01T05:06:33;98198.66;;;10.70;100.00
13080;BME280;6606;49.154;9.280;2023-04-01T05:09:16;98199.41;;;10.72;100.00
13080;BME280;6606;49.154;9.280;2023-04-01T05:11:58;98195.03;;;10.71;100.00
13080;BME280;6606;49.154;9.280;2023-04-01T05:14:44;98193.13;;;10.73;100.00
13080;BME280;6606;49.154;9.280;2023-04-01T05:17:26;98200.84;;;10.76;100.00
13080;BME280;6606;49.154;9.280;2023-04-01T05:20:08;98185.56;;;10.79;100.00
13080;BME280;6606;49.154;9.280;2023-04-01T05:22:55;98172.66;;;10.75;100.00
13080;BME280;6606;49.154;9.280;2023-04-01T05:25:38;98182.69;;;10.83;100.00
13080;BME280;6606;49.154;9.280;2023-04-01T05:28:20;98177.59;;;10.79;100.00
13080;BME280;6606;49.154;9.280;2023-04-01T05:31:03;98188.69;;;10.85;100.00
13080;BME280;6606;49.154;9.280;2023-04-01T05:33:49;98179.34;;;10.92;100.00
13080;BME280;6606;49.154;9.280;2023-04-01T05:36:31;98177.03;;;10.87;100.00
13080;BME280;6606;49.154;9.280;2023-04-01T05:39:13;98187.19;;;10.93;100.00
13080;BME280;6606;49.154;9.280;2023-04-01T05:41:58;98177.53;;;10.92;100.00
13080;BME280;6606;49.154;9.280;2023-04-01T05:44:40;98175.03;;;11.02;100.00
13080;BME280;6606;49.154;9.280;2023-04-01T05:47:22;98181.16;;;10.91;100.00
13080;BME280;6606;49.154;9.280;2023-04-01T05:50:04;98171.78;;;10.98;100.00
13080;BME280;6606;49.154;9.280;2023-04-01T05:52:46;98167.50;;;10.85;100.00
13080;BME280;6606;49.154;9.280;2023-04-01T05:55:28;98172.97;;;11.06;100.00
13080;BME280;6606;49.154;9.280;2023-04-01T05:58:11;98169.00;;;11.00;100.00
13080;BME280;6606;49.154;9.280;2023-04-01T06:01:02;98173.19;;;10.91;100.00
13080;BME280;6606;49.154;9.280;2023-04-01T06:03:44;98173.94;;;10.93;100.00
13080;BME280;6606;49.154;9.280;2023-04-01T06:06:28;98172.81;;;10.85;100.00
13080;BME280;6606;49.154;9.280;2023-04-01T06:09:26;98177.13;;;10.74;100.00
13080;BME280;6606;49.154;9.280;2023-04-01T06:12:24;98167.59;;;10.72;100.00
13080;BME280;6606;49.154;9.280;2023-04-01T06:15:20;98168.09;;;10.53;100.00
13080;BME280;6606;49.154;9.280;2023-04-01T06:21:37;98171.81;;;10.50;100.00
13080;BME280;6606;49.154;9.280;2023-04-01T06:24:31;98178.56;;;10.43;100.00
13080;BME280;6606;49.154;9.280;2023-04-01T06:27:26;98178.56;;;10.43;100.00
13080;BME280;6606;49.154;9.280;2023-04-01T06:30:28;98179.41;;;10.44;100.00
13080;BME280;6606;49.154;9.280;2023-04-01T06:33:24;98183.84;;;10.43;100.00
13080;BME280;6606;49.154;9.280;2023-04-01T06:36:23;98166.84;;;10.59;100.00
13080;BME280;6606;49.154;9.280;2023-04-01T06:39:27;98174.78;;;10.59;100.00
13080;BME280;6606;49.154;9.280;2023-04-01T06:42:26;98175.81;;;10.80;100.00
13080;BME280;6606;49.154;9.280;2023-04-01T06:45:30;98185.09;;;10.86;100.00
13080;BME280;6606;49.154;9.280;2023-04-01T06:48:45;98185.72;;;10.89;100.00
13080;BME280;6606;49.154;9.280;2023-04-01T06:52:12;98178.84;;;10.98;100.00
13080;BME280;6606;49.154;9.280;2023-04-01T06:55:23;98181.41;;;10.99;100.00
13080;BME280;6606;49.154;9.280;2023-04-01T06:58:29;98185.66;;;11.13;100.00
13080;BME280;6606;49.154;9.280;2023-04-01T07:01:19;98184.06;;;11.11;100.00
13080;BME280;6606;49.154;9.280;2023-04-01T07:04:09;98180.59;;;11.10;100.00
13080;BME280;6606;49.154;9.280;2023-04-01T07:06:55;98179.00;;;11.08;100.00
13080;BME280;6606;49.154;9.280;2023-04-01T07:09:41;98180.47;;;11.12;100.00
13080;BME280;6606;49.154;9.280;2023-04-01T07:12:49;98177.50;;;11.28;100.00
13080;BME280;6606;49.154;9.280;2023-04-01T07:16:04;98189.19;;;11.36;100.00
13080;BME280;6606;49.154;9.280;2023-04-01T07:18:56;98181.00;;;11.28;100.00
13080;BME280;6606;49.154;9.280;2023-04-01T07:21:48;98187.03;;;11.41;100.00
13080;BME280;6606;49.154;9.280;2023-04-01T07:24:40;98187.97;;;11.40;100.00
13080;BME280;6606;49.154;9.280;2023-04-01T07:27:23;98177.34;;;11.29;100.00
13080;BME280;6606;49.154;9.280;2023-04-01T07:30:13;98183.28;;;11.33;100.00
13080;BME280;6606;49.154;9.280;2023-04-01T07:33:00;98177.09;;;11.21;100.00
13080;BME280;6606;49.154;9.280;2023-04-01T07:35:50;98186.72;;;11.11;100.00
13080;BME280;6606;49.154;9.280;2023-04-01T07:38:42;98183.84;;;11.14;100.00
13080;BME280;6606;49.154;9.280;2023-04-01T07:41:42;98194.09;;;11.30;100.00
13080;BME280;6606;49.154;9.280;2023-04-01T07:44:35;98191.09;;;11.12;100.00
13080;BME280;6606;49.154;9.280;2023-04-01T07:47:34;98195.69;;;11.21;100.00
13080;BME280;6606;49.154;9.280;2023-04-01T07:50:26;98194.22;;;11.17;100.00
13080;BME280;6606;49.154;9.280;2023-04-01T07:53:14;98200.69;;;11.02;100.00
13080;BME280;6606;49.154;9.280;2023-04-01T07:56:05;98193.00;;;11.10;100.00
13080;BME280;6606;49.154;9.280;2023-04-01T07:58:59;98197.91;;;11.03;100.00
13080;BME280;6606;49.154;9.280;2023-04-01T08:02:19;98220.66;;;10.94;100.00
13080;BME280;6606;49.154;9.280;2023-04-01T08:05:13;98207.75;;;10.90;100.00
13080;BME280;6606;49.154;9.280;2023-04-01T08:08:05;98208.66;;;11.02;100.00
13080;BME280;6606;49.154;9.280;2023-04-01T08:11:21;98206.81;;;10.91;100.00
13080;BME280;6606;49.154;9.280;2023-04-01T08:14:33;98212.44;;;10.86;100.00
13080;BME280;6606;49.154;9.280;2023-04-01T08:17:43;98211.16;;;10.92;100.00
13080;BME280;6606;49.154;9.280;2023-04-01T08:20:34;98221.66;;;11.05;100.00
13080;BME280;6606;49.154;9.280;2023-04-01T08:23:22;98221.63;;;10.93;100.00
13080;BME280;6606;49.154;9.280;2023-04-01T08:26:08;98218.22;;;10.80;100.00
13080;BME280;6606;49.154;9.280;2023-04-01T08:28:59;98223.53;;;10.80;100.00
13080;BME280;6606;49.154;9.280;2023-04-01T08:31:49;98237.09;;;10.75;100.00
13080;BME280;6606;49.154;9.280;2023-04-01T08:34:36;98263.19;;;10.69;100.00
13080;BME280;6606;49.154;9.280;2023-04-01T08:37:21;98234.19;;;10.67;100.00
13080;BME280;6606;49.154;9.280;2023-04-01T08:40:37;98225.69;;;10.86;100.00
13080;BME280;6606;49.154;9.280;2023-04-01T08:43:32;98218.44;;;11.12;100.00
13080;BME280;6606;49.154;9.280;2023-04-01T08:49:47;98205.94;;;11.48;100.00
13080;BME280;6606;49.154;9.280;2023-04-01T08:53:00;98209.16;;;11.07;100.00
13080;BME280;6606;49.154;9.280;2023-04-01T08:55:51;98214.38;;;11.31;100.00
13080;BME280;6606;49.154;9.280;2023-04-01T08:58:59;98209.19;;;11.29;100.00
13080;BME280;6606;49.154;9.280;2023-04-01T09:01:59;98203.94;;;11.52;100.00
13080;BME280;6606;49.154;9.280;2023-04-01T09:05:29;98193.78;;;11.45;100.00
13080;BME280;6606;49.154;9.280;2023-04-01T09:08:28;98213.06;;;11.48;100.00
13080;BME280;6606;49.154;9.280;2023-04-01T09:11:20;98203.19;;;11.50;100.00
13080;BME280;6606;49.154;9.280;2023-04-01T09:17:47;98213.47;;;11.54;100.00
13080;BME280;6606;49.154;9.280;2023-04-01T09:20:44;98205.34;;;11.56;100.00
13080;BME280;6606;49.154;9.280;2023-04-01T09:27:03;98216.00;;;11.78;100.00
13080;BME280;6606;49.154;9.280;2023-04-01T09:30:02;98213.22;;;11.69;100.00
13080;BME280;6606;49.154;9.280;2023-04-01T09:36:07;98218.16;;;11.73;100.00
13080;BME280;6606;49.154;9.280;2023-04-01T09:38:57;98231.44;;;11.62;100.00
13080;BME280;6606;49.154;9.280;2023-04-01T09:41:54;98220.81;;;11.62;100.00
13080;BME280;6606;49.154;9.280;2023-04-01T09:44:52;98222.38;;;11.53;100.00
13080;BME280;6606;49.154;9.280;2023-04-01T09:47:53;98236.19;;;11.34;100.00
13080;BME280;6606;49.154;9.280;2023-04-01T09:50:42;98219.28;;;11.24;100.00
13080;BME280;6606;49.154;9.280;2023-04-01T09:53:41;98227.75;;;11.29;100.00
13080;BME280;6606;49.154;9.280;2023-04-01T09:57:18;98226.41;;;11.23;100.00
13080;BME280;6606;49.154;9.280;2023-04-01T10:07:49;98237.63;;;11.27;100.00
13080;BME280;6606;49.154;9.280;2023-04-01T10:10:58;98237.41;;;11.30;100.00
13080;BME280;6606;49.154;9.280;2023-04-01T10:14:11;98241.50;;;11.23;100.00
13080;BME280;6606;49.154;9.280;2023-04-01T10:23:37;98238.75;;;11.47;100.00
13080;BME280;6606;49.154;9.280;2023-04-01T10:27:03;98243.00;;;11.61;100.00
13080;BME280;6606;49.154;9.280;2023-04-01T10:33:45;98245.66;;;11.50;100.00
13080;BME280;6606;49.154;9.280;2023-04-01T10:36:43;98275.06;;;11.47;100.00
13080;BME280;6606;49.154;9.280;2023-04-01T10:40:07;98247.88;;;11.32;100.00
13080;BME280;6606;49.154;9.280;2023-04-01T10:43:40;98240.09;;;11.41;100.00
13080;BME280;6606;49.154;9.280;2023-04-01T10:47:17;98252.88;;;11.59;100.00
13080;BME280;6606;49.154;9.280;2023-04-01T10:50:20;98243.00;;;11.50;100.00
13080;BME280;6606;49.154;9.280;2023-04-01T10:57:02;98251.13;;;11.24;100.00
13080;BME280;6606;49.154;9.280;2023-04-01T11:07:56;98255.53;;;11.48;100.00
13080;BME280;6606;49.154;9.280;2023-04-01T11:11:04;98260.97;;;11.46;100.00
13080;BME280;6606;49.154;9.280;2023-04-01T11:14:19;98252.88;;;11.48;100.00
13080;BME280;6606;49.154;9.280;2023-04-01T11:17:31;98258.91;;;11.50;100.00
13080;BME280;6606;49.154;9.280;2023-04-01T11:20:45;98250.44;;;11.44;100.00
13080;BME280;6606;49.154;9.280;2023-04-01T11:23:43;98260.78;;;11.25;100.00
13080;BME280;6606;49.154;9.280;2023-04-01T11:26:33;98253.34;;;11.30;100.00
13080;BME280;6606;49.154;9.280;2023-04-01T11:29:50;98259.84;;;11.37;100.00
13080;BME280;6606;49.154;9.280;2023-04-01T11:32:43;98270.09;;;11.31;100.00
13080;BME280;6606;49.154;9.280;2023-04-01T11:35:51;98267.69;;;11.39;100.00
13080;BME280;6606;49.154;9.280;2023-04-01T11:38:53;98270.00;;;11.43;100.00
13080;BME280;6606;49.154;9.280;2023-04-01T11:42:17;98276.28;;;11.54;100.00
13080;BME280;6606;49.154;9.280;2023-04-01T11:45:30;98284.72;;;11.59;100.00
13080;BME280;6606;49.154;9.280;2023-04-01T11:48:38;98270.59;;;11.47;100.00
13080;BME280;6606;49.154;9.280;2023-04-01T11:51:50;98276.31;;;11.65;100.00
13080;BME280;6606;49.154;9.280;2023-04-01T11:54:53;98281.88;;;11.84;100.00
13080;BME280;6606;49.154;9.280;2023-04-01T11:57:57;98278.97;;;11.65;100.00
13080;BME280;6606;49.154;9.280;2023-04-01T12:01:04;98275.09;;;11.69;100.00
13080;BME280;6606;49.154;9.280;2023-04-01T12:04:23;98275.81;;;11.60;100.00
13080;BME280;6606;49.154;9.280;2023-04-01T12:07:17;98280.44;;;11.80;100.00
13080;BME280;6606;49.154;9.280;2023-04-01T12:10:15;98275.56;;;11.63;100.00
13080;BME280;6606;49.154;9.280;2023-04-01T12:13:02;98296.06;;;11.61;100.00
13080;BME280;6606;49.154;9.280;2023-04-01T12:15:56;98297.31;;;11.79;100.00
13080;BME280;6606;49.154;9.280;2023-04-01T12:18:43;98298.81;;;11.95;100.00
13080;BME280;6606;49.154;9.280;2023-04-01T12:21:35;98299.50;;;11.85;100.00
13080;BME280;6606;49.154;9.280;2023-04-01T12:24:40;98292.72;;;11.81;100.00
13080;BME280;6606;49.154;9.280;2023-04-01T12:27:50;98313.00;;;11.82;100.00
13080;BME280;6606;49.154;9.280;2023-04-01T12:30:50;98310.31;;;11.71;100.00
13080;BME280;6606;49.154;9.280;2023-04-01T12:33:44;98315.16;;;11.77;100.00
13080;BME280;6606;49.154;9.280;2023-04-01T12:36:49;98290.31;;;11.78;100.00
13080;BME280;6606;49.154;9.280;2023-04-01T12:39:46;98294.66;;;11.79;100.00
13080;BME280;6606;49.154;9.280;2023-04-01T12:42:46;98311.06;;;11.84;100.00
13080;BME280;6606;49.154;9.280;2023-04-01T12:45:33;98321.91;;;11.70;100.00
13080;BME280;6606;49.154;9.280;2023-04-01T12:48:32;98311.16;;;11.72;100.00
13080;BME280;6606;49.154;9.280;2023-04-01T12:51:31;98303.59;;;11.78;100.00
13080;BME280;6606;49.154;9.280;2023-04-01T12:58:06;98319.38;;;11.80;100.00
13080;BME280;6606;49.154;9.280;2023-04-01T13:01:10;98326.25;;;11.82;100.00
13080;BME280;6606;49.154;9.280;2023-04-01T13:04:15;98309.81;;;12.01;100.00
13080;BME280;6606;49.154;9.280;2023-04-01T13:07:32;98334.53;;;12.24;100.00
13080;BME280;6606;49.154;9.280;2023-04-01T13:10:31;98310.88;;;12.32;100.00
13080;BME280;6606;49.154;9.280;2023-04-01T13:16:37;98321.03;;;12.39;100.00
13080;BME280;6606;49.154;9.280;2023-04-01T13:19:25;98340.22;;;12.08;100.00
13080;BME280;6606;49.154;9.280;2023-04-01T13:22:15;98328.00;;;12.06;100.00
13080;BME280;6606;49.154;9.280;2023-04-01T13:25:07;98335.28;;;12.15;100.00
13080;BME280;6606;49.154;9.280;2023-04-01T13:27:56;98334.06;;;12.08;100.00
13080;BME280;6606;49.154;9.280;2023-04-01T13:30:48;98345.13;;;11.91;100.00
13080;BME280;6606;49.154;9.280;2023-04-01T13:33:38;98340.56;;;11.93;100.00
13080;BME280;6606;49.154;9.280;2023-04-01T13:36:29;98348.47;;;11.70;100.00
13080;BME280;6606;49.154;9.280;2023-04-01T13:39:27;98340.44;;;11.59;100.00
13080;BME280;6606;49.154;9.280;2023-04-01T13:42:17;98373.78;;;11.39;100.00
13080;BME280;6606;49.154;9.280;2023-04-01T13:45:18;98342.13;;;11.49;100.00
13080;BME280;6606;49.154;9.280;2023-04-01T13:48:42;98342.91;;;11.62;100.00
13080;BME280;6606;49.154;9.280;2023-04-01T13:51:43;98354.16;;;11.41;100.00
13080;BME280;6606;49.154;9.280;2023-04-01T13:54:44;98361.09;;;11.66;100.00
13080;BME280;6606;49.154;9.280;2023-04-01T13:57:51;98350.53;;;11.78;100.00
13080;BME280;6606;49.154;9.280;2023-04-01T14:00:57;98361.50;;;11.73;100.00
13080;BME280;6606;49.154;9.280;2023-04-01T14:07:03;98360.34;;;11.88;100.00
13080;BME280;6606;49.154;9.280;2023-04-01T14:10:02;98366.31;;;11.79;100.00
13080;BME280;6606;49.154;9.280;2023-04-01T14:12:57;98371.03;;;11.76;100.00
13080;BME280;6606;49.154;9.280;2023-04-01T14:15:50;98359.09;;;11.81;100.00
13080;BME280;6606;49.154;9.280;2023-04-01T14:18:45;98363.88;;;11.65;100.00
13080;BME280;6606;49.154;9.280;2023-04-01T14:21:38;98354.09;;;11.65;100.00
13080;BME280;6606;49.154;9.280;2023-04-01T14:24:36;98364.88;;;11.75;100.00
13080;BME280;6606;49.154;9.280;2023-04-01T14:27:46;98364.97;;;11.62;100.00
13080;BME280;6606;49.154;9.280;2023-04-01T14:30:43;98366.50;;;11.54;100.00
13080;BME280;6606;49.154;9.280;2023-04-01T14:33:39;98381.19;;;11.47;100.00
13080;BME280;6606;49.154;9.280;2023-04-01T14:36:34;98379.91;;;11.63;100.00
13080;BME280;6606;49.154;9.280;2023-04-01T14:39:39;98390.41;;;11.65;100.00
13080;BME280;6606;49.154;9.280;2023-04-01T14:42:45;98392.63;;;11.47;100.00
13080;BME280;6606;49.154;9.280;2023-04-01T14:45:46;98375.56;;;11.62;100.00
13080;BME280;6606;49.154;9.280;2023-04-01T14:48:36;98383.72;;;11.83;100.00
13080;BME280;6606;49.154;9.280;2023-04-01T14:51:23;98374.19;;;11.81;100.00
13080;BME280;6606;49.154;9.280;2023-04-01T14:54:13;98384.03;;;11.68;100.00
13080;BME280;6606;49.154;9.280;2023-04-01T14:57:11;98395.13;;;11.97;100.00
13080;BME280;6606;49.154;9.280;2023-04-01T14:59:59;98389.84;;;11.73;100.00
13080;BME280;6606;49.154;9.280;2023-04-01T15:02:51;98385.88;;;11.78;100.00
13080;BME280;6606;49.154;9.280;2023-04-01T15:05:45;98380.63;;;11.54;100.00
13080;BME280;6606;49.154;9.280;2023-04-01T15:08:31;98379.34;;;11.71;100.00
13080;BME280;6606;49.154;9.280;2023-04-01T15:11:23;98369.94;;;11.67;100.00
13080;BME280;6606;49.154;9.280;2023-04-01T15:14:43;98384.38;;;11.63;100.00
13080;BME280;6606;49.154;9.280;2023-04-01T15:17:53;98397.41;;;11.66;100.00
13080;BME280;6606;49.154;9.280;2023-04-01T15:21:04;98399.56;;;11.61;100.00
13080;BME280;6606;49.154;9.280;2023-04-01T15:23:58;98390.94;;;11.81;100.00
13080;BME280;6606;49.154;9.280;2023-04-01T15:27:14;98394.78;;;11.77;100.00
13080;BME280;6606;49.154;9.280;2023-04-01T15:30:17;98396.53;;;11.90;100.00
13080;BME280;6606;49.154;9.280;2023-04-01T15:33:22;98398.66;;;11.73;100.00
13080;BME280;6606;49.154;9.280;2023-04-01T15:36:27;98411.94;;;11.49;100.00
13080;BME280;6606;49.154;9.280;2023-04-01T15:39:14;98402.69;;;11.55;100.00
13080;BME280;6606;49.154;9.280;2023-04-01T15:42:17;98408.28;;;11.74;100.00
13080;BME280;6606;49.154;9.280;2023-04-01T15:45:13;98405.59;;;11.63;100.00
13080;BME280;6606;49.154;9.280;2023-04-01T15:48:00;98412.53;;;11.77;100.00
13080;BME280;6606;49.154;9.280;2023-04-01T15:50:54;98411.34;;;11.81;100.00
13080;BME280;6606;49.154;9.280;2023-04-01T15:53:56;98409.75;;;11.67;100.00
13080;BME280;6606;49.154;9.280;2023-04-01T15:56:50;98416.19;;;11.52;100.00
13080;BME280;6606;49.154;9.280;2023-04-01T15:59:47;98410.41;;;11.58;100.00
13080;BME280;6606;49.154;9.280;2023-04-01T16:02:40;98420.47;;;11.65;100.00
13080;BME280;6606;49.154;9.280;2023-04-01T16:05:32;98413.06;;;11.58;100.00
13080;BME280;6606;49.154;9.280;2023-04-01T16:08:25;98423.22;;;11.40;100.00
13080;BME280;6606;49.154;9.280;2023-04-01T16:11:19;98415.44;;;11.50;100.00
13080;BME280;6606;49.154;9.280;2023-04-01T16:14:13;98414.75;;;11.59;100.00
13080;BME280;6606;49.154;9.280;2023-04-01T16:17:08;98428.94;;;11.47;100.00